Ванино

Карта отелей и гостиниц, располагающихся рядом с аэропортом Ванино :



Ванино Хабаровский край 49° 5' 40.56" N, 140° 16' 22.5012" E

Ванино Хабаровский край 49° 5' 40.56" N, 140° 16' 22.5012" E
Код аэродрома ИКАО: 
HCD5
Код аэродрома RU: 
ХЦД5
Координаты: 
N49.09460° E140.27292°
Превышение над уровнем моря : 
50
Основная полоса: 
09/27
Курс магнитный: 
086,1/266,1
Длина основной ВПП: 
21
Ширина основной ВПП: 
20
Покрытие основной ВПП: 
Твёрдое (асфальт)
Тип: 
Вертодром
Освещение ВПП: 
Нет
Класс аэродрома: 
Статус: 
Действующий
Принадлежность: 
ГА
Сайт: 
E-mail аэродрома: 
Страна: 
Россия
Регион: 
Хабаровский край
Город: 
Дополнительная информация: 
Оператор: нет данных. ПП маркирована по нормативу здравоохранения. Расположена в городе, неподалёку от районной прокуратуры/госпиталя ВМФ.

Найти трансфер

С помощью этой формы Вы можете найти трансфер из аэропорта Ванино в город, аэропорт или вокзал:

Карта места

Javascript is required to view this map.

Погода в аэропортах:

Авиационная погода в Нижнекамске

Регион: 
Погода METAR: 
UWKE 210400Z 23006MPS 0300 R21/0375D FZFG VV001 M02/M02 Q1020 R21/390038 NOSIG RMK QBB040 OBST OBSC QFE748/0997
Время наблюдения: 
2020-02-21T04:00:00Z
Температура C: 
-2.0
Точка росы: 
-2.0
Направление ветра: 
230
Скорость ветра: 
12
Метеорологическая видимость: 
0.19
Явления погоды: 
FZFG
Условия полета: 
LIFR
Аэропорт подробнее: 

Авиационная погода в Ивало

Регион: 
Погода METAR: 
EFIV 210350Z AUTO 19010KT 150V220 9999 -SHSN OVC014 M05/M08 Q0987
Время наблюдения: 
2020-02-21T03:50:00Z
Температура C: 
-5.0
Точка росы: 
-8.0
Направление ветра: 
190
Скорость ветра: 
10
Метеорологическая видимость: 
6.21
Явления погоды: 
-SHSN
Условия полета: 
MVFR

Авиационная погода в Ставрополе

Регион: 
Погода METAR: 
URMT 210400Z 12005MPS 0100 R07/M0200N FG VV001 01/01 Q1015 R07/120060 NOSIG RMK QBB030 OBST OBSC QFE721
Время наблюдения: 
2020-02-21T04:00:00Z
Температура C: 
1.0
Точка росы: 
1.0
Направление ветра: 
120
Скорость ветра: 
10
Метеорологическая видимость: 
0.06
Явления погоды: 
FG
Условия полета: 
LIFR
Аэропорт подробнее: 

Авиационная погода во Владикавказе

Регион: 
Погода METAR: 
URMO 210400Z VRB01MPS 0150 R09/M0200N FG VV002 00/00 Q1015 R09/190060 NOSIG RMK QBB070 MT OBSC QFE718/0957
Время наблюдения: 
2020-02-21T04:00:00Z
Температура C: 
0.0
Точка росы: 
0.0
Направление ветра: 
0
Скорость ветра: 
2
Метеорологическая видимость: 
0.09
Явления погоды: 
FG
Условия полета: 
LIFR
Аэропорт подробнее: